createdAt,value
2018-09-16T00:01:50.996Z,3.53
2018-09-16T00:04:19.361Z,2.50
2018-09-16T00:06:47.701Z,3.67
2018-09-16T00:09:16.021Z,2.90
2018-09-16T00:11:44.392Z,2.60
2018-09-16T00:14:12.757Z,2.67
2018-09-16T00:16:41.084Z,2.90
2018-09-16T00:19:09.437Z,3.63
2018-09-16T00:21:37.784Z,3.57
2018-09-16T00:24:07.274Z,2.93
2018-09-16T00:26:35.677Z,3.03
2018-09-16T00:29:04.053Z,3.20
2018-09-16T00:31:32.558Z,2.70
2018-09-16T00:34:01.024Z,2.70
2018-09-16T00:36:29.362Z,2.83
2018-09-16T00:38:58.732Z,3.20
2018-09-16T00:41:27.093Z,3.47
2018-09-16T00:43:55.428Z,3.07
2018-09-16T00:46:23.771Z,3.03
2018-09-16T00:48:52.122Z,3.17
2018-09-16T00:51:20.449Z,3.30
2018-09-16T00:53:48.794Z,3.13
2018-09-16T00:56:17.200Z,3.33
2018-09-16T00:58:45.556Z,2.73
2018-09-16T01:01:13.830Z,3.37
2018-09-16T01:03:42.139Z,3.23
2018-09-16T01:06:15.725Z,3.40
2018-09-16T01:08:44.010Z,3.10
2018-09-16T01:11:12.322Z,2.97
2018-09-16T01:13:40.597Z,2.77
2018-09-16T01:16:08.880Z,3.40
2018-09-16T01:18:37.163Z,3.27
2018-09-16T01:21:05.503Z,2.90
2018-09-16T01:23:33.845Z,3.23
2018-09-16T01:26:02.229Z,2.83
2018-09-16T01:28:31.149Z,2.30
2018-09-16T01:30:59.485Z,2.90
2018-09-16T01:33:27.880Z,2.30
2018-09-16T01:35:56.222Z,2.90
2018-09-16T01:38:25.156Z,3.60
2018-09-16T01:40:54.821Z,2.40
2018-09-16T01:43:23.156Z,2.37
2018-09-16T01:45:51.500Z,2.50
2018-09-16T01:48:19.844Z,3.10
2018-09-16T01:50:48.158Z,2.67
2018-09-16T01:53:16.486Z,2.90
2018-09-16T01:55:46.810Z,3.10
2018-09-16T01:58:15.167Z,2.53
2018-09-16T02:00:43.503Z,2.10
2018-09-16T02:03:11.851Z,2.87
2018-09-16T02:05:47.596Z,3.10
2018-09-16T02:08:16.023Z,2.20
2018-09-16T02:10:44.348Z,2.90
2018-09-16T02:13:12.880Z,3.30
2018-09-16T02:15:41.214Z,3.07
2018-09-16T02:18:09.549Z,2.10
2018-09-16T02:20:37.880Z,2.73
2018-09-16T02:23:06.281Z,2.60
2018-09-16T02:25:36.608Z,2.40
2018-09-16T02:28:04.956Z,3.10
2018-09-16T02:30:33.459Z,2.47
2018-09-16T02:33:03.189Z,2.90
2018-09-16T02:35:31.500Z,2.23
2018-09-16T02:37:59.854Z,2.03
2018-09-16T02:40:28.418Z,2.87
2018-09-16T02:42:56.749Z,2.57
2018-09-16T02:45:25.195Z,2.90
2018-09-16T02:47:53.503Z,3.07
2018-09-16T02:50:21.791Z,2.70
2018-09-16T02:52:50.136Z,3.30
2018-09-16T02:55:18.787Z,3.00
2018-09-16T02:57:47.118Z,2.77
2018-09-16T03:00:15.476Z,2.93
2018-09-16T03:02:43.788Z,3.20
2018-09-16T03:05:16.247Z,3.10
2018-09-16T03:07:44.567Z,3.63
2018-09-16T03:10:12.877Z,2.87
2018-09-16T03:12:41.183Z,3.33
2018-09-16T03:15:09.508Z,3.63
2018-09-16T03:17:37.848Z,3.30
2018-09-16T03:20:06.245Z,3.80
2018-09-16T03:22:34.565Z,4.17
2018-09-16T03:25:02.877Z,4.00
2018-09-16T03:27:31.219Z,4.07
2018-09-16T03:29:59.578Z,4.10
2018-09-16T03:32:27.910Z,4.27
2018-09-16T03:34:56.262Z,3.30
2018-09-16T03:37:24.591Z,4.40
2018-09-16T03:39:52.929Z,4.40
2018-09-16T03:42:21.257Z,4.63
2018-09-16T03:44:49.612Z,4.57
2018-09-16T03:47:17.939Z,4.27
2018-09-16T03:49:46.276Z,3.90
2018-09-16T03:52:15.682Z,3.73
2018-09-16T03:54:44.037Z,3.83
2018-09-16T03:57:13.368Z,4.30
2018-09-16T03:59:41.704Z,4.27
2018-09-16T04:02:10.025Z,3.43
2018-09-16T04:04:38.357Z,4.70
2018-09-16T04:07:06.684Z,5.43
2018-09-16T04:09:35.025Z,6.07
2018-09-16T04:12:04.387Z,4.20
2018-09-16T04:14:32.888Z,5.33
2018-09-16T04:17:01.225Z,5.17
2018-09-16T04:19:29.552Z,5.10
2018-09-16T04:21:57.880Z,5.40
2018-09-16T04:24:26.213Z,4.93
2018-09-16T04:26:54.555Z,6.00
2018-09-16T04:29:22.877Z,6.47
2018-09-16T04:31:51.263Z,6.40
2018-09-16T04:34:19.580Z,7.10
2018-09-16T04:36:47.936Z,6.83
2018-09-16T04:39:16.272Z,6.80
2018-09-16T04:41:44.622Z,9.13
2018-09-16T04:44:13.007Z,8.07
2018-09-16T04:46:41.332Z,7.43
2018-09-16T04:49:10.764Z,7.90
2018-09-16T04:51:39.175Z,8.33
2018-09-16T04:54:07.531Z,9.37
2018-09-16T04:56:35.879Z,7.30
2018-09-16T04:59:04.206Z,9.70
2018-09-16T05:01:32.560Z,9.00
2018-09-16T05:04:00.936Z,8.47
2018-09-16T05:06:30.349Z,10.00
2018-09-16T05:08:58.685Z,9.67
2018-09-16T05:11:27.054Z,10.93
2018-09-16T05:13:55.512Z,10.27
2018-09-16T05:16:23.909Z,10.50
2018-09-16T05:18:52.288Z,10.30
2018-09-16T05:21:20.622Z,9.07
2018-09-16T05:23:48.976Z,9.80
2018-09-16T05:26:18.377Z,11.33
2018-09-16T05:28:46.740Z,9.53
2018-09-16T05:31:15.171Z,9.67
2018-09-16T05:33:43.469Z,9.23
2018-09-16T05:36:11.779Z,9.20
2018-09-16T05:38:40.224Z,9.73
2018-09-16T05:41:08.573Z,10.20
2018-09-16T05:43:36.896Z,10.10
2018-09-16T05:46:05.320Z,10.00
2018-09-16T05:48:34.721Z,8.43
2018-09-16T05:51:03.040Z,9.73
2018-09-16T05:53:31.483Z,10.03
2018-09-16T05:55:59.715Z,8.90
2018-09-16T05:58:28.053Z,10.03
2018-09-16T06:00:56.379Z,10.07
2018-09-16T06:03:24.708Z,8.77
2018-09-16T06:05:53.029Z,9.20
2018-09-16T06:08:21.355Z,8.47
2018-09-16T06:10:49.753Z,9.23
2018-09-16T06:13:18.054Z,10.30
2018-09-16T06:15:46.363Z,8.50
2018-09-16T06:18:14.707Z,9.50
2018-09-16T06:20:43.027Z,8.80
2018-09-16T06:23:11.356Z,9.67
2018-09-16T06:25:39.663Z,8.47
2018-09-16T06:28:08.014Z,9.20
2018-09-16T06:30:36.331Z,7.77
2018-09-16T06:33:05.776Z,8.73
2018-09-16T06:35:34.096Z,9.10
2018-09-16T06:38:02.424Z,10.20
2018-09-16T06:40:30.768Z,9.00
2018-09-16T06:42:59.165Z,10.30
2018-09-16T06:45:27.504Z,10.00
2018-09-16T06:47:56.169Z,8.60
2018-09-16T06:50:24.500Z,9.80
2018-09-16T06:52:52.851Z,9.63
2018-09-16T06:55:21.232Z,9.63
2018-09-16T06:57:49.833Z,8.40
2018-09-16T07:00:18.205Z,9.50
2018-09-16T07:02:46.633Z,8.80
2018-09-16T07:05:16.009Z,8.73
2018-09-16T07:07:45.376Z,9.50
2018-09-16T07:10:13.700Z,8.70
2018-09-16T07:12:42.205Z,10.40
2018-09-16T07:15:11.536Z,8.87
2018-09-16T07:17:39.896Z,9.20
2018-09-16T07:20:08.628Z,9.30
2018-09-16T07:22:36.887Z,9.27
2018-09-16T07:25:05.592Z,8.17
2018-09-16T07:27:34.032Z,9.63
2018-09-16T07:30:02.360Z,9.80
2018-09-16T07:32:30.676Z,9.95
2018-09-16T07:34:59.244Z,10.40
2018-09-16T07:37:27.648Z,9.47
2018-09-16T07:39:56.021Z,9.13
2018-09-16T07:42:24.376Z,9.13
2018-09-16T07:44:52.740Z,8.87
2018-09-16T07:47:21.069Z,8.80
2018-09-16T07:49:49.491Z,8.37
2018-09-16T07:52:17.799Z,7.87
2018-09-16T07:54:46.116Z,8.10
2018-09-16T07:57:14.492Z,8.70
2018-09-16T07:59:42.815Z,8.60
2018-09-16T08:02:11.136Z,8.63
2018-09-16T08:04:39.508Z,7.90
2018-09-16T08:07:07.851Z,7.43
2018-09-16T08:09:36.155Z,7.93
2018-09-16T08:12:04.556Z,7.67
2018-09-16T08:14:32.860Z,7.40
2018-09-16T08:17:01.268Z,7.50
2018-09-16T08:19:29.620Z,7.10
2018-09-16T08:21:57.966Z,7.70
2018-09-16T08:24:26.281Z,6.40
2018-09-16T08:26:54.632Z,6.50
2018-09-16T08:29:23.732Z,5.70
2018-09-16T08:31:52.281Z,5.53
2018-09-16T08:34:20.620Z,5.37
2018-09-16T08:36:48.937Z,6.33
2018-09-16T08:39:18.337Z,4.87
2018-09-16T08:41:46.753Z,4.50
2018-09-16T08:44:15.072Z,5.80
2018-09-16T08:46:43.469Z,5.30
2018-09-16T08:49:11.828Z,5.60
2018-09-16T08:51:40.161Z,5.20
2018-09-16T08:54:08.496Z,4.70
2018-09-16T08:56:36.838Z,5.53
2018-09-16T08:59:05.185Z,4.93
2018-09-16T09:01:33.492Z,5.00
2018-09-16T09:04:01.828Z,4.53
2018-09-16T09:06:30.140Z,5.87
2018-09-16T09:08:58.483Z,4.47
2018-09-16T09:11:26.804Z,5.10
2018-09-16T09:13:55.148Z,4.20
2018-09-16T09:16:23.504Z,5.03
2018-09-16T09:18:51.837Z,4.40
2018-09-16T09:21:20.224Z,5.40
2018-09-16T09:23:48.559Z,4.50
2018-09-16T09:26:16.921Z,4.87
2018-09-16T09:28:45.232Z,4.90
2018-09-16T09:31:13.564Z,5.40
2018-09-16T09:33:42.077Z,4.27
2018-09-16T09:36:10.430Z,5.00
2018-09-16T09:38:38.832Z,4.73
2018-09-16T09:41:07.192Z,4.80
2018-09-16T09:43:35.610Z,4.40
2018-09-16T09:46:04.024Z,4.00
2018-09-16T09:48:32.424Z,4.50
2018-09-16T09:51:00.838Z,4.27
2018-09-16T09:53:29.430Z,4.97
2018-09-16T09:55:57.915Z,4.40
2018-09-16T09:58:26.608Z,3.87
2018-09-16T10:00:54.993Z,4.10
2018-09-16T10:03:23.476Z,3.60
2018-09-16T10:05:51.869Z,5.00
2018-09-16T10:08:20.216Z,3.47
2018-09-16T10:10:48.880Z,3.97
2018-09-16T10:13:17.236Z,4.10
2018-09-16T10:15:45.573Z,4.33
2018-09-16T10:18:13.973Z,4.23
2018-09-16T10:20:42.341Z,4.90
2018-09-16T10:23:10.681Z,3.70
2018-09-16T10:25:39.363Z,4.03
2018-09-16T10:28:07.692Z,4.60
2018-09-16T10:30:36.056Z,3.40
2018-09-16T10:33:04.445Z,3.93
2018-09-16T10:35:33.713Z,4.97
2018-09-16T10:38:02.048Z,3.87
2018-09-16T10:40:30.542Z,4.37
2018-09-16T10:42:58.867Z,3.90
2018-09-16T10:45:28.283Z,3.80
2018-09-16T10:47:56.946Z,3.90
2018-09-16T10:50:25.294Z,3.67
2018-09-16T10:52:54.656Z,3.80
2018-09-16T10:55:23.026Z,3.57
2018-09-16T10:57:51.340Z,5.07
2018-09-16T11:00:19.775Z,3.73
2018-09-16T11:02:48.171Z,3.40
2018-09-16T11:05:16.551Z,3.57
2018-09-16T11:07:44.917Z,3.47
2018-09-16T11:10:13.244Z,3.33
2018-09-16T11:12:41.551Z,3.00
2018-09-16T11:15:09.906Z,3.20
2018-09-16T11:17:38.210Z,3.40
2018-09-16T11:20:07.577Z,3.40
2018-09-16T11:22:37.012Z,3.37
2018-09-16T11:25:05.697Z,3.27
2018-09-16T11:27:34.022Z,3.17
2018-09-16T11:30:02.430Z,3.50
2018-09-16T11:32:30.765Z,3.30
2018-09-16T11:34:59.124Z,3.13
2018-09-16T11:37:27.485Z,3.00
2018-09-16T11:39:55.841Z,3.27
2018-09-16T11:42:24.264Z,3.37
2018-09-16T11:44:53.855Z,3.73
2018-09-16T11:47:22.193Z,2.83
2018-09-16T11:49:50.616Z,3.43
2018-09-16T11:52:19.001Z,4.50
2018-09-16T11:54:47.332Z,4.40
2018-09-16T11:57:15.738Z,4.80
2018-09-16T11:59:44.164Z,3.90
2018-09-16T12:02:12.508Z,4.43
2018-09-16T12:04:41.256Z,4.43
2018-09-16T12:07:09.633Z,4.27
2018-09-16T12:09:38.148Z,4.40
2018-09-16T12:12:06.512Z,5.07
2018-09-16T12:14:34.856Z,4.40
2018-09-16T12:17:03.200Z,4.60
2018-09-16T12:19:31.551Z,3.90
2018-09-16T12:21:59.876Z,5.13
2018-09-16T12:24:28.309Z,5.30
2018-09-16T12:26:56.652Z,4.27
2018-09-16T12:29:24.984Z,4.40
2018-09-16T12:31:53.309Z,4.63
2018-09-16T12:34:21.634Z,3.40
2018-09-16T12:36:49.979Z,3.93
2018-09-16T12:39:18.308Z,3.43
2018-09-16T12:41:46.655Z,3.73
2018-09-16T12:44:14.984Z,3.30
2018-09-16T12:46:43.337Z,4.23
2018-09-16T12:49:11.642Z,4.00
2018-09-16T12:51:39.980Z,4.40
2018-09-16T12:54:08.316Z,3.33
2018-09-16T12:56:36.648Z,3.60
2018-09-16T12:59:05.042Z,3.20
2018-09-16T13:01:33.417Z,3.22
2018-09-16T13:04:01.741Z,3.30
2018-09-16T13:06:30.117Z,3.30
2018-09-16T13:08:58.455Z,3.63
2018-09-16T13:11:26.810Z,3.30
2018-09-16T13:13:55.151Z,3.10
2018-09-16T13:16:24.494Z,3.67
2018-09-16T13:18:52.835Z,3.87
2018-09-16T13:21:21.232Z,3.70
2018-09-16T13:23:49.549Z,5.53
2018-09-16T13:26:17.993Z,3.83
2018-09-16T13:28:46.449Z,4.97
2018-09-16T13:31:14.725Z,5.77
2018-09-16T13:33:43.049Z,4.03
2018-09-16T13:36:11.413Z,4.00
2018-09-16T13:38:39.731Z,4.17
2018-09-16T13:41:08.081Z,4.70
2018-09-16T13:43:36.392Z,6.20
2018-09-16T13:46:04.745Z,6.00
2018-09-16T13:48:33.117Z,5.63
2018-09-16T13:51:01.453Z,6.23
2018-09-16T13:53:29.783Z,6.20
2018-09-16T13:55:58.329Z,6.87
2018-09-16T13:58:26.704Z,6.70
2018-09-16T14:00:55.008Z,5.63
2018-09-16T14:03:23.408Z,7.30
2018-09-16T14:05:51.684Z,6.07
2018-09-16T14:08:20.107Z,7.50
2018-09-16T14:10:49.353Z,6.30
2018-09-16T14:13:18.528Z,6.77
2018-09-16T14:15:46.846Z,7.00
2018-09-16T14:18:15.188Z,6.87
2018-09-16T14:20:43.524Z,6.80
2018-09-16T14:23:11.838Z,7.13
2018-09-16T14:25:40.343Z,6.40
2018-09-16T14:28:08.742Z,6.47
2018-09-16T14:30:37.012Z,6.90
2018-09-16T14:33:05.568Z,4.73
2018-09-16T14:35:33.855Z,5.60
2018-09-16T14:38:02.189Z,5.57
2018-09-16T14:40:30.548Z,5.33
2018-09-16T14:42:58.874Z,4.83
2018-09-16T14:45:27.199Z,5.13
2018-09-16T14:47:55.556Z,5.57
2018-09-16T14:50:23.880Z,4.23
2018-09-16T14:52:52.200Z,4.40
2018-09-16T14:55:20.560Z,5.03
2018-09-16T14:57:48.889Z,4.43
2018-09-16T15:00:17.197Z,4.70
2018-09-16T15:02:45.580Z,5.80
2018-09-16T15:05:13.896Z,5.20
2018-09-16T15:07:42.258Z,6.97
2018-09-16T15:10:10.581Z,7.03
2018-09-16T15:12:38.989Z,6.07
2018-09-16T15:15:07.511Z,5.23
2018-09-16T15:17:35.975Z,4.87
2018-09-16T15:20:04.336Z,5.53
2018-09-16T15:22:32.648Z,5.53
2018-09-16T15:25:01.025Z,4.70
2018-09-16T15:27:29.344Z,5.23
2018-09-16T15:29:57.696Z,4.10
2018-09-16T15:32:27.044Z,5.00
2018-09-16T15:34:55.600Z,4.53
2018-09-16T15:37:23.933Z,5.30
2018-09-16T15:39:52.322Z,4.80
2018-09-16T15:42:20.636Z,4.77
2018-09-16T15:44:48.956Z,4.63
2018-09-16T15:47:18.376Z,4.97
2018-09-16T15:49:46.695Z,4.97
2018-09-16T15:52:15.008Z,5.40
2018-09-16T15:54:43.384Z,4.60
2018-09-16T15:57:11.701Z,4.27
2018-09-16T15:59:40.101Z,4.70
2018-09-16T16:02:08.428Z,4.70
2018-09-16T16:04:36.980Z,4.90
2018-09-16T16:07:05.576Z,4.50
2018-09-16T16:09:33.936Z,4.87
2018-09-16T16:12:02.257Z,4.80
2018-09-16T16:14:31.693Z,4.60
2018-09-16T16:17:00.050Z,5.20
2018-09-16T16:19:28.368Z,5.30
2018-09-16T16:21:56.696Z,4.67
2018-09-16T16:24:25.013Z,5.17
2018-09-16T16:26:53.335Z,5.13
2018-09-16T16:29:22.712Z,5.37
2018-09-16T16:31:51.056Z,5.07
2018-09-16T16:34:19.439Z,5.10
2018-09-16T16:36:47.736Z,5.70
2018-09-16T16:39:16.061Z,5.77
2018-09-16T16:41:44.421Z,5.10
2018-09-16T16:44:12.735Z,5.23
2018-09-16T16:46:41.074Z,5.13
2018-09-16T16:49:09.424Z,6.03
2018-09-16T16:51:37.880Z,6.17
2018-09-16T16:54:06.201Z,6.53
2018-09-16T16:56:34.581Z,5.93
2018-09-16T16:59:02.916Z,6.83
2018-09-16T17:01:31.236Z,7.40
2018-09-16T17:03:59.788Z,6.17
2018-09-16T17:06:28.110Z,5.10
2018-09-16T17:08:56.440Z,6.10
2018-09-16T17:11:25.056Z,6.27
2018-09-16T17:13:53.372Z,7.20
2018-09-16T17:16:21.708Z,8.60
2018-09-16T17:18:50.085Z,10.40
2018-09-16T17:21:18.436Z,11.23
2018-09-16T17:23:46.776Z,11.50
2018-09-16T17:26:15.169Z,10.40
2018-09-16T17:28:43.513Z,10.37
2018-09-16T17:31:12.508Z,8.97
2018-09-16T17:33:40.861Z,7.73
2018-09-16T17:36:09.184Z,9.83
2018-09-16T17:38:38.207Z,10.63
2018-09-16T17:41:06.666Z,8.27
2018-09-16T17:43:35.000Z,9.33
2018-09-16T17:46:03.454Z,8.57
2018-09-16T17:48:31.831Z,8.20
2018-09-16T17:51:00.259Z,7.97
2018-09-16T17:53:28.529Z,8.50
2018-09-16T17:55:57.173Z,9.53
2018-09-16T17:58:25.476Z,8.13
2018-09-16T18:00:54.363Z,8.67
2018-09-16T18:03:22.700Z,7.80
2018-09-16T18:05:51.748Z,9.93
2018-09-16T18:08:24.236Z,9.73
2018-09-16T18:10:53.000Z,10.60
2018-09-16T18:13:21.326Z,9.60
2018-09-16T18:15:49.817Z,10.30
2018-09-16T18:18:18.148Z,9.10
2018-09-16T18:20:46.586Z,9.07
2018-09-16T18:23:15.078Z,9.50
2018-09-16T18:25:43.672Z,8.60
2018-09-16T18:28:12.396Z,8.37
2018-09-16T18:30:40.960Z,9.90
2018-09-16T18:33:09.282Z,9.70
2018-09-16T18:35:37.966Z,9.27
2018-09-16T18:38:06.941Z,8.77
2018-09-16T18:40:35.280Z,10.17
2018-09-16T18:43:03.880Z,9.73
2018-09-16T18:45:33.253Z,8.87
2018-09-16T18:48:02.472Z,7.97
2018-09-16T18:50:30.864Z,8.47
2018-09-16T18:52:59.388Z,8.00
2018-09-16T18:55:27.808Z,8.83
2018-09-16T18:57:56.449Z,8.70
2018-09-16T19:00:24.800Z,8.93
2018-09-16T19:02:53.212Z,10.07
2018-09-16T19:05:21.772Z,7.37
2018-09-16T19:07:50.476Z,6.90
2018-09-16T19:10:18.788Z,6.53
2018-09-16T19:12:47.115Z,7.93
2018-09-16T19:15:15.506Z,7.47
2018-09-16T19:17:43.920Z,6.17
2018-09-16T19:20:12.268Z,6.70
2018-09-16T19:22:40.654Z,7.13
2018-09-16T19:25:09.013Z,7.00
2018-09-16T19:27:37.344Z,7.50
2018-09-16T19:30:05.753Z,7.90
2018-09-16T19:32:34.132Z,8.53
2018-09-16T19:35:02.480Z,9.40
2018-09-16T19:37:30.848Z,8.57
2018-09-16T19:39:59.222Z,7.87
2018-09-16T19:42:27.581Z,7.77
2018-09-16T19:44:55.944Z,8.97
2018-09-16T19:47:24.329Z,8.67
2018-09-16T19:49:52.720Z,7.90
2018-09-16T19:52:21.081Z,8.37
2018-09-16T19:54:49.404Z,8.37
2018-09-16T19:57:17.736Z,9.50
2018-09-16T19:59:46.191Z,8.30
2018-09-16T20:02:14.544Z,8.70
2018-09-16T20:04:42.895Z,8.63
2018-09-16T20:07:11.251Z,8.37
2018-09-16T20:09:39.612Z,7.87
2018-09-16T20:12:07.932Z,7.73
2018-09-16T20:14:36.301Z,8.00
2018-09-16T20:17:04.652Z,7.20
2018-09-16T20:19:33.009Z,7.20
2018-09-16T20:22:01.344Z,7.37
2018-09-16T20:24:30.787Z,7.47
2018-09-16T20:27:00.168Z,8.83
2018-09-16T20:29:28.558Z,7.73
2018-09-16T20:31:56.908Z,7.50
2018-09-16T20:34:25.240Z,8.50
2018-09-16T20:36:53.731Z,10.10
2018-09-16T20:39:22.064Z,7.20
2018-09-16T20:41:50.417Z,7.57
2018-09-16T20:44:18.784Z,7.63
2018-09-16T20:46:48.168Z,7.70
2018-09-16T20:49:16.526Z,7.10
2018-09-16T20:51:44.936Z,6.70
2018-09-16T20:54:13.289Z,7.37
2018-09-16T20:56:41.645Z,7.70
2018-09-16T20:59:10.026Z,7.20
2018-09-16T21:01:38.412Z,6.90
2018-09-16T21:04:06.872Z,7.30
2018-09-16T21:06:36.380Z,6.87
2018-09-16T21:09:08.512Z,7.60
2018-09-16T21:11:37.948Z,6.67
2018-09-16T21:14:06.284Z,7.00
2018-09-16T21:16:35.765Z,7.10
2018-09-16T21:19:05.130Z,6.73
2018-09-16T21:21:33.601Z,7.77
2018-09-16T21:24:01.968Z,6.30
2018-09-16T21:26:30.499Z,7.10
2018-09-16T21:28:58.768Z,6.30
2018-09-16T21:31:27.101Z,6.40
2018-09-16T21:33:55.660Z,6.97
2018-09-16T21:36:23.973Z,7.13
2018-09-16T21:38:52.338Z,6.50
2018-09-16T21:41:20.712Z,6.40
2018-09-16T21:43:49.041Z,7.83
2018-09-16T21:46:18.025Z,7.33
2018-09-16T21:48:46.701Z,8.30
2018-09-16T21:51:17.825Z,8.40
2018-09-16T21:53:46.623Z,8.50
2018-09-16T21:56:15.156Z,8.23
2018-09-16T21:58:43.490Z,8.50
2018-09-16T22:01:12.036Z,8.20
2018-09-16T22:03:40.468Z,10.10
2018-09-16T22:06:08.862Z,7.07
2018-09-16T22:08:37.225Z,9.03
2018-09-16T22:11:06.069Z,8.13
2018-09-16T22:13:34.397Z,7.60
2018-09-16T22:16:02.731Z,8.33
2018-09-16T22:18:31.265Z,8.93
2018-09-16T22:20:59.601Z,8.23
2018-09-16T22:23:27.960Z,10.17
2018-09-16T22:25:56.331Z,8.43
2018-09-16T22:28:24.645Z,9.00
2018-09-16T22:30:52.971Z,9.03
2018-09-16T22:33:21.545Z,8.23
2018-09-16T22:35:49.872Z,9.30
2018-09-16T22:38:18.217Z,7.70
2018-09-16T22:40:46.614Z,6.80
2018-09-16T22:43:14.945Z,7.77
2018-09-16T22:45:43.281Z,8.13
2018-09-16T22:48:11.620Z,8.20
2018-09-16T22:50:39.956Z,8.33
2018-09-16T22:53:08.372Z,8.03
2018-09-16T22:55:36.704Z,8.03
2018-09-16T22:58:05.046Z,8.20
2018-09-16T23:00:33.490Z,7.83
2018-09-16T23:03:01.910Z,8.13
2018-09-16T23:05:30.393Z,8.30
2018-09-16T23:07:58.732Z,7.87
2018-09-16T23:10:27.077Z,7.90
2018-09-16T23:12:55.421Z,9.20
2018-09-16T23:15:24.081Z,7.53
2018-09-16T23:17:52.465Z,7.70
2018-09-16T23:20:20.804Z,9.27
2018-09-16T23:22:49.135Z,7.63
2018-09-16T23:25:17.449Z,8.67
2018-09-16T23:27:45.791Z,7.60
2018-09-16T23:30:14.128Z,8.60
2018-09-16T23:32:42.481Z,7.90
2018-09-16T23:35:10.828Z,7.33
2018-09-16T23:37:39.173Z,8.30
2018-09-16T23:40:07.765Z,8.77
2018-09-16T23:42:36.244Z,9.40
2018-09-16T23:45:04.602Z,8.10
2018-09-16T23:47:32.984Z,8.30
2018-09-16T23:50:01.310Z,8.27
2018-09-16T23:52:29.636Z,8.10
2018-09-16T23:54:57.983Z,8.53
2018-09-16T23:57:26.333Z,7.90
2018-09-16T23:59:54.656Z,7.63
